Pagrindinis puslapis
METAR-TAF:

METAR-TAF

Oro uostai :

Oslas, Norvegija

platuma: 60-12N, ilguma: 011-05E, Aukštis: 208 m

Dabartinis oras

Ataskaita buvo paskelbta 23 minutes, ne 06:50 UTC
Vėjas 6 kt iš Šiaurės, svyruoja nuo Šiaurės Vakarų ir Šiaurės Rytų
Temperatūra 15°C
Drėgmė 67%
Slėgis 1008 hPa
Matomumas 10 km arba daugiau
Mažai debesys ne aukštis 1800 ft
Išsisklaidę debesys ne aukštis 5500 ft

METAR: ENGM 190650Z 36006KT 320V040 9999 FEW018 SCT055 15/09 Q1008 NOSIG

Laikas: 09:13 (07:13 UTC)

Prognozė

Ataskaita buvo paskelbta 2 valandos ir 13 minutes, ne 05:00 UTC
Prognozė galioja nuo 19 metu 06 UTC su 20 metu 06 UTC
Vėjas 5 kt iš Šiaurės
Matomumas 10 km arba daugiau
Mažai debesys ne aukštis 4000 ft
Laikinai
nuo 19 metu 11 UTC su 19 metu 18 UTC
Mažai debesys ne aukštis 3000 ft, Liūtiniai kamuoliniai debesys.
Su prošvaistėmis ne aukštis 4000 ft
lietus,

TAF: ENGM 190500Z 1906/2006 35005KT 9999 FEW040 TEMPO 1911/1918 SHRA FEW030CB BKN040

Orai ataskaitas ir orų prognozės (METAR, TAF).

turimą stotys yra geltonos ir raudonos taškus žemėlapyje.

Perkelti pele per norėdami pamatyti stoties vardą.

Tada spustelėkite, norėdami matyti oro stebėjimo ir prognozės.

Norėdami pakeisti žemėlapį: spustelėkite ant žalios mygtukų su juodo kryžiaus žemyn,; žalią mygtuką su brūkšneliu, jei norite nutolinti; arba žalių rodyklių gretimoms žemėlapius.


METAR-TAF: